EST,Max TemperatureF,Mean TemperatureF,Min TemperatureF,Max Dew PointF,MeanDew PointF,Min DewpointF,Max Humidity, Mean Humidity, Min Humidity, Max Sea Level PressureIn, Mean Sea Level PressureIn, Min Sea Level PressureIn, Max VisibilityMiles, Mean VisibilityMiles, Min VisibilityMiles, Max Wind SpeedMPH, Mean Wind SpeedMPH, Max Gust SpeedMPH,PrecipitationIn, CloudCover, Events, WindDirDegrees
2012-12-1,73,68,62,64,61,58,90,79,64,30.25,30.21,30.16,10,10,10,13,8,,0.00,0,,55
2012-12-2,77,70,64,65,63,60,93,81,58,30.28,30.22,30.18,10,10,10,13,8,,0.00,2,,63
2012-12-3,77,72,66,67,64,61,93,81,60,30.27,30.22,30.17,10,10,10,13,7,,0.00,4,,80
2012-12-4,78,71,64,65,60,53,84,73,43,30.28,30.21,30.17,10,10,10,12,9,,0.00,2,,89
2012-12-5,77,70,64,65,60,55,87,72,47,30.18,30.10,30.03,10,10,10,14,5,,0.00,3,,41
2012-12-6,78,72,66,67,65,63,93,81,60,30.05,29.98,29.92,10,10,10,16,9,,0.00,5,,77
2012-12-7,75,68,62,66,64,63,100,92,71,30.02,29.96,29.92,10,7,1,15,9,,0.00,4,,67
2012-12-8,77,70,64,68,66,65,100,91,66,30.05,30.00,29.96,10,8,0,9,7,,0.00,4,Fog,101
2012-12-9,75,70,64,69,67,64,100,96,76,30.10,30.05,30.01,10,5,0,12,4,20,0.00,5,Fog,88
2012-12-10,78,71,64,74,69,64,100,94,82,30.02,29.93,29.85,10,7,0,20,7,31,0.39,6,Fog-Rain-Thunderstorm,221
2012-12-11,75,72,69,72,70,69,100,97,85,30.02,29.95,29.88,10,9,6,12,5,,0.02,5,Rain,194
2012-12-12,82,75,68,72,70,67,100,89,67,30.08,30.02,29.98,10,8,1,12,4,,0.13,5,Rain,221
2012-12-13,73,67,61,67,61,55,84,76,59,30.20,30.12,30.06,10,10,8,23,10,24,0.00,6,,17
2012-12-14,70,64,59,60,57,54,87,81,65,30.22,30.17,30.11,10,10,9,16,14,,0.00,5,,44
2012-12-15,77,70,62,65,62,58,96,84,66,30.15,30.10,30.04,10,7,0,12,8,,0.00,4,Fog,64
2012-12-16,80,74,68,67,64,61,90,77,54,30.05,30.00,29.95,10,10,10,12,6,,0.00,0,,174
2012-12-17,79,74,68,70,68,64,96,85,68,29.98,29.92,29.88,10,10,9,15,6,23,0.00,1,,206
2012-12-18,79,72,64,71,65,54,97,79,62,30.03,29.96,29.89,10,10,9,14,7,20,0.00,2,,292
2012-12-19,77,70,63,58,53,47,81,60,34,30.12,30.06,30.03,10,10,10,12,5,,0.00,0,,47
2012-12-20,80,72,64,71,66,53,93,80,61,30.07,29.99,29.94,10,8,1,24,12,40,0.64,4,Rain-Thunderstorm,213
2012-12-21,72,64,57,69,45,39,91,57,46,30.22,30.12,29.97,10,10,9,21,14,31,0.00,1,Rain,343
2012-12-22,62,56,51,43,37,27,66,51,28,30.31,30.25,30.21,10,10,10,16,9,22,0.00,0,,6
2012-12-23,66,60,53,49,41,32,83,52,27,30.26,30.20,30.14,10,10,10,10,6,,0.00,0,,72
2012-12-24,68,64,61,60,55,43,87,72,50,30.13,30.06,29.98,10,10,10,16,7,,0.00,2,Rain,182
2012-12-25,73,67,61,61,59,57,90,78,61,30.01,29.95,29.88,10,10,10,14,7,,0.00,0,,184
2012-12-26,75,67,57,69,61,49,97,83,65,30.02,29.88,29.82,10,9,0,22,12,31,0.30,5,Fog-Rain,263
2012-12-27,61,56,51,48,46,43,86,74,52,30.11,30.06,30.01,10,10,10,12,7,,0.00,1,,10
2012-12-28,68,60,53,64,57,47,100,84,57,30.10,29.99,29.92,10,7,1,10,6,,0.64,6,Rain,79
2012-12-29,73,66,57,70,64,48,100,90,67,30.17,29.96,29.86,10,6,0,20,12,28,0.23,6,Fog-Rain,261
2012-12-30,57,51,45,47,41,35,80,67,47,30.37,30.30,30.18,10,10,10,20,16,26,0.00,1,,44
2012-12-31,71,61,51,57,52,46,89,75,57,30.35,30.26,30.19,10,10,7,12,7,,0.00,0,,40